createdAt,value
2018-07-08T00:01:48.713Z,7.13
2018-07-08T00:04:17.552Z,7.50
2018-07-08T00:06:46.306Z,7.07
2018-07-08T00:09:15.121Z,6.63
2018-07-08T00:11:43.928Z,6.63
2018-07-08T00:14:12.709Z,8.07
2018-07-08T00:16:41.492Z,7.03
2018-07-08T00:19:09.883Z,7.23
2018-07-08T00:21:39.032Z,6.33
2018-07-08T00:24:08.033Z,6.30
2018-07-08T00:26:36.879Z,7.13
2018-07-08T00:29:05.718Z,8.03
2018-07-08T00:31:34.565Z,7.20
2018-07-08T00:34:03.388Z,6.83
2018-07-08T00:36:32.105Z,7.17
2018-07-08T00:39:01.102Z,7.23
2018-07-08T00:41:29.849Z,6.70
2018-07-08T00:43:58.925Z,7.70
2018-07-08T00:46:27.643Z,6.77
2018-07-08T00:48:56.495Z,9.30
2018-07-08T00:51:25.290Z,7.07
2018-07-08T00:53:54.047Z,7.20
2018-07-08T00:56:22.887Z,8.47
2018-07-08T00:58:51.695Z,7.23
2018-07-08T01:01:20.646Z,7.47
2018-07-08T01:03:49.462Z,8.70
2018-07-08T01:06:18.433Z,7.57
2018-07-08T01:08:47.407Z,6.53
2018-07-08T01:11:16.272Z,9.10
2018-07-08T01:13:45.141Z,9.47
2018-07-08T01:16:13.684Z,9.10
2018-07-08T01:18:42.636Z,7.53
2018-07-08T01:21:11.545Z,6.53
2018-07-08T01:23:40.365Z,6.37
2018-07-08T01:26:13.898Z,7.40
2018-07-08T01:28:43.545Z,7.07
2018-07-08T01:31:13.220Z,6.77
2018-07-08T01:33:42.050Z,6.87
2018-07-08T01:36:11.153Z,7.13
2018-07-08T01:38:40.077Z,7.43
2018-07-08T01:41:08.849Z,7.27
2018-07-08T01:43:37.684Z,8.93
2018-07-08T01:46:06.774Z,7.67
2018-07-08T01:48:35.587Z,8.57
2018-07-08T01:51:04.443Z,9.07
2018-07-08T01:53:33.269Z,8.03
2018-07-08T01:56:01.998Z,8.27
2018-07-08T01:58:30.933Z,9.93
2018-07-08T02:00:59.966Z,8.03
2018-07-08T02:03:28.844Z,9.23
2018-07-08T02:05:57.623Z,8.57
2018-07-08T02:08:26.448Z,7.80
2018-07-08T02:10:55.356Z,7.70
2018-07-08T02:13:24.203Z,7.93
2018-07-08T02:15:53.056Z,8.40
2018-07-08T02:18:21.944Z,7.53
2018-07-08T02:20:50.680Z,8.33
2018-07-08T02:23:19.575Z,7.83
2018-07-08T02:25:48.345Z,8.37
2018-07-08T02:28:17.141Z,7.57
2018-07-08T02:30:46.027Z,7.53
2018-07-08T02:33:14.903Z,7.50
2018-07-08T02:35:43.728Z,7.63
2018-07-08T02:38:12.775Z,9.30
2018-07-08T02:40:41.743Z,8.43
2018-07-08T02:43:10.919Z,9.30
2018-07-08T02:45:39.861Z,8.80
2018-07-08T02:48:08.785Z,9.63
2018-07-08T02:50:37.699Z,9.80
2018-07-08T02:53:06.651Z,9.10
2018-07-08T02:55:35.701Z,10.03
2018-07-08T02:58:04.614Z,11.17
2018-07-08T03:00:33.525Z,10.23
2018-07-08T03:03:02.477Z,10.00
2018-07-08T03:05:31.452Z,9.67
2018-07-08T03:08:00.266Z,11.00
2018-07-08T03:10:29.176Z,10.77
2018-07-08T03:12:57.955Z,10.50
2018-07-08T03:15:26.714Z,10.30
2018-07-08T03:17:55.465Z,11.63
2018-07-08T03:20:24.214Z,11.27
2018-07-08T03:22:52.984Z,9.07
2018-07-08T03:25:21.907Z,9.43
2018-07-08T03:27:50.797Z,10.30
2018-07-08T03:30:19.697Z,10.07
2018-07-08T03:32:48.502Z,11.63
2018-07-08T03:35:17.472Z,9.87
2018-07-08T03:37:46.123Z,9.90
2018-07-08T03:40:14.882Z,9.70
2018-07-08T03:42:43.663Z,11.17
2018-07-08T03:45:12.466Z,9.80
2018-07-08T03:47:41.216Z,9.63
2018-07-08T03:50:09.911Z,9.93
2018-07-08T03:52:38.801Z,10.40
2018-07-08T03:55:07.612Z,10.00
2018-07-08T03:57:36.444Z,10.10
2018-07-08T04:00:05.296Z,9.87
2018-07-08T04:02:34.114Z,10.67
2018-07-08T04:05:03.103Z,8.63
2018-07-08T04:07:31.958Z,9.20
2018-07-08T04:10:00.835Z,9.27
2018-07-08T04:12:29.756Z,9.80
2018-07-08T04:14:58.611Z,9.50
2018-07-08T04:17:27.462Z,9.73
2018-07-08T04:19:56.363Z,9.20
2018-07-08T04:22:25.301Z,9.00
2018-07-08T04:24:54.165Z,8.90
2018-07-08T04:27:23.271Z,9.40
2018-07-08T04:29:52.074Z,10.10
2018-07-08T04:32:20.995Z,8.77
2018-07-08T04:34:49.794Z,9.67
2018-07-08T04:37:18.641Z,12.30
2018-07-08T04:39:47.414Z,11.43
2018-07-08T04:42:16.298Z,9.27
2018-07-08T04:44:45.096Z,9.43
2018-07-08T04:47:13.874Z,9.77
2018-07-08T04:49:42.652Z,8.70
2018-07-08T04:52:11.477Z,8.40
2018-07-08T04:54:40.343Z,8.60
2018-07-08T04:57:09.057Z,9.00
2018-07-08T04:59:37.872Z,8.07
2018-07-08T05:02:06.623Z,7.97
2018-07-08T05:04:35.379Z,8.07
2018-07-08T05:07:04.141Z,7.17
2018-07-08T05:09:32.927Z,7.87
2018-07-08T05:12:01.769Z,7.87
2018-07-08T05:14:30.532Z,8.00
2018-07-08T05:16:59.375Z,8.60
2018-07-08T05:19:28.359Z,6.77
2018-07-08T05:21:57.063Z,6.83
2018-07-08T05:24:25.770Z,7.17
2018-07-08T05:26:54.853Z,6.93
2018-07-08T05:29:23.537Z,6.20
2018-07-08T05:31:52.280Z,7.60
2018-07-08T05:34:21.191Z,7.13
2018-07-08T05:36:50.007Z,5.87
2018-07-08T05:39:18.680Z,6.23
2018-07-08T05:41:47.627Z,6.07
2018-07-08T05:44:16.330Z,5.43
2018-07-08T05:46:45.090Z,9.13
2018-07-08T05:49:13.837Z,5.50
2018-07-08T05:51:42.599Z,5.87
2018-07-08T05:54:11.374Z,6.50
2018-07-08T05:56:40.267Z,5.30
2018-07-08T05:59:08.968Z,4.97
2018-07-08T06:01:37.640Z,5.33
2018-07-08T06:04:06.340Z,6.07
2018-07-08T06:06:35.239Z,5.20
2018-07-08T06:09:04.421Z,4.80
2018-07-08T06:11:33.300Z,4.47
2018-07-08T06:14:01.969Z,4.53
2018-07-08T06:16:30.877Z,3.60
2018-07-08T06:18:59.644Z,4.03
2018-07-08T06:21:28.575Z,4.17
2018-07-08T06:23:57.442Z,4.97
2018-07-08T06:26:26.228Z,3.30
2018-07-08T06:28:55.000Z,4.23
2018-07-08T06:31:23.882Z,4.07
2018-07-08T06:33:52.651Z,4.17
2018-07-08T06:36:21.064Z,3.50
2018-07-08T06:38:49.815Z,3.00
2018-07-08T06:41:18.642Z,4.07
2018-07-08T06:43:47.456Z,4.30
2018-07-08T06:46:16.264Z,2.83
2018-07-08T06:48:45.227Z,3.60
2018-07-08T06:51:14.107Z,3.27
2018-07-08T06:53:44.303Z,4.33
2018-07-08T06:56:14.450Z,2.70
2018-07-08T06:59:54.123Z,2.60
2018-07-08T07:02:23.771Z,3.37
2018-07-08T07:07:38.959Z,3.08
2018-07-08T07:10:07.720Z,3.08
2018-07-08T07:12:36.407Z,2.95
2018-07-08T07:15:05.306Z,2.67
2018-07-08T07:17:34.320Z,3.55
2018-07-08T07:20:06.893Z,3.92
2018-07-08T07:22:36.155Z,2.98
2018-07-08T07:25:07.779Z,3.95
2018-07-08T07:27:49.515Z,3.05
2018-07-08T07:30:18.550Z,2.02
2018-07-08T07:35:23.116Z,2.27
2018-07-08T07:37:52.349Z,2.85
2018-07-08T07:40:21.776Z,5.17
2018-07-08T07:42:55.839Z,3.60
2018-07-08T07:45:26.344Z,4.05
2018-07-08T07:48:03.646Z,3.87
2018-07-08T07:50:41.053Z,3.62
2018-07-08T07:53:11.594Z,5.00
2018-07-08T07:55:46.476Z,4.10
2018-07-08T08:00:59.576Z,3.92
2018-07-08T08:03:28.146Z,3.37
2018-07-08T08:05:56.711Z,3.55
2018-07-08T08:08:25.474Z,5.65
2018-07-08T08:10:54.176Z,2.55
2018-07-08T08:13:22.772Z,5.95
2018-07-08T08:15:51.358Z,2.35
2018-07-08T08:18:19.850Z,3.77
2018-07-08T08:20:48.361Z,3.90
2018-07-08T08:23:16.918Z,3.45
2018-07-08T08:25:45.450Z,2.27
2018-07-08T08:28:14.145Z,4.58
2018-07-08T08:30:42.913Z,5.03
2018-07-08T08:33:11.525Z,5.53
2018-07-08T08:35:40.143Z,3.87
2018-07-08T08:38:08.703Z,4.33
2018-07-08T08:40:37.188Z,3.58
2018-07-08T08:43:05.823Z,3.37
2018-07-08T08:45:34.400Z,3.60
2018-07-08T08:48:03.351Z,2.92
2018-07-08T08:50:31.858Z,3.25
2018-07-08T08:53:00.537Z,2.52
2018-07-08T08:55:28.994Z,4.22
2018-07-08T08:57:57.814Z,2.85
2018-07-08T09:00:26.248Z,4.10
2018-07-08T09:02:54.776Z,3.65
2018-07-08T09:05:23.264Z,3.00
2018-07-08T09:07:51.832Z,2.70
2018-07-08T09:10:20.318Z,4.47
2018-07-08T09:12:50.886Z,2.33
2018-07-08T09:15:19.447Z,3.37
2018-07-08T09:17:47.992Z,3.02
2018-07-08T09:20:16.455Z,2.08
2018-07-08T09:22:44.948Z,2.40
2018-07-08T09:25:13.468Z,4.15
2018-07-08T09:27:42.165Z,3.15
2018-07-08T09:30:11.403Z,2.27
2018-07-08T09:32:40.059Z,3.58
2018-07-08T09:35:08.597Z,4.70
2018-07-08T09:37:37.135Z,2.85
2018-07-08T09:40:05.740Z,3.05
2018-07-08T09:42:34.319Z,2.72
2018-07-08T09:45:02.791Z,3.62
2018-07-08T09:47:31.272Z,4.97
2018-07-08T09:49:59.855Z,2.60
2018-07-08T09:52:28.386Z,2.58
2018-07-08T09:54:56.922Z,2.40
2018-07-08T09:57:27.654Z,1.57
2018-07-08T09:59:56.260Z,1.92
2018-07-08T10:02:24.932Z,2.52
2018-07-08T10:04:53.510Z,4.25
2018-07-08T10:07:22.311Z,2.90
2018-07-08T10:09:51.219Z,2.10
2018-07-08T10:12:19.803Z,2.55
2018-07-08T10:14:48.441Z,3.10
2018-07-08T10:17:17.052Z,2.08
2018-07-08T10:19:45.774Z,1.60
2018-07-08T10:22:14.102Z,2.92
2018-07-08T10:25:02.782Z,1.82
2018-07-08T10:28:48.601Z,1.85
2018-07-08T10:31:20.476Z,1.72
2018-07-08T10:33:56.618Z,1.30
2018-07-08T10:36:25.571Z,2.20
2018-07-08T10:38:54.483Z,2.52
2018-07-08T10:41:23.083Z,2.52
2018-07-08T10:43:51.680Z,3.85
2018-07-08T10:46:20.313Z,2.17
2018-07-08T10:48:48.859Z,4.12
2018-07-08T10:51:23.037Z,1.42
2018-07-08T10:53:51.631Z,1.70
2018-07-08T10:56:20.528Z,2.52
2018-07-08T10:58:49.116Z,1.27
2018-07-08T11:01:17.933Z,1.75
2018-07-08T11:03:46.448Z,2.15
2018-07-08T11:06:14.996Z,2.22
2018-07-08T11:08:43.179Z,3.77
2018-07-08T11:11:11.830Z,1.47
2018-07-08T11:13:40.351Z,2.05
2018-07-08T11:16:08.914Z,1.00
2018-07-08T11:18:37.515Z,1.25
2018-07-08T11:21:06.090Z,1.50
2018-07-08T11:23:34.700Z,1.30
2018-07-08T11:26:03.288Z,1.35
2018-07-08T11:28:31.789Z,1.67
2018-07-08T11:31:00.337Z,1.37
2018-07-08T11:33:29.000Z,1.22
2018-07-08T11:35:57.466Z,1.32
2018-07-08T11:38:47.109Z,1.90
2018-07-08T11:41:16.553Z,1.37
2018-07-08T11:43:45.249Z,1.35
2018-07-08T11:46:14.109Z,1.35
2018-07-08T11:48:42.676Z,3.85
2018-07-08T11:51:11.221Z,2.30
2018-07-08T11:53:39.742Z,1.65
2018-07-08T11:56:08.254Z,2.55
2018-07-08T11:58:36.771Z,2.80
2018-07-08T12:01:05.194Z,2.25
2018-07-08T12:03:33.671Z,3.02
2018-07-08T12:06:05.697Z,3.20
2018-07-08T12:08:34.176Z,1.45
2018-07-08T12:11:02.741Z,2.33
2018-07-08T12:13:31.237Z,2.17
2018-07-08T12:15:59.792Z,1.87
2018-07-08T12:18:28.310Z,3.62
2018-07-08T12:20:56.899Z,1.92
2018-07-08T12:23:25.475Z,2.02
2018-07-08T12:25:54.137Z,2.90
2018-07-08T12:28:22.390Z,2.65
2018-07-08T12:30:51.044Z,1.50
2018-07-08T12:33:22.720Z,1.95
2018-07-08T12:35:51.268Z,2.58
2018-07-08T12:38:20.298Z,1.98
2018-07-08T12:40:49.049Z,2.05
2018-07-08T12:43:18.915Z,1.77
2018-07-08T12:45:47.558Z,1.77
2018-07-08T12:48:16.134Z,1.62
2018-07-08T12:53:54.720Z,1.27
2018-07-08T12:56:24.950Z,1.50
2018-07-08T12:58:53.840Z,1.57
2018-07-08T13:01:23.154Z,2.00
2018-07-08T13:03:53.054Z,1.37
2018-07-08T13:16:00.157Z,1.10
2018-07-08T13:18:33.112Z,1.10
2018-07-08T13:21:29.913Z,1.77
2018-07-08T13:24:01.197Z,1.35
2018-07-08T13:26:35.712Z,1.65
2018-07-08T13:29:09.122Z,1.57
2018-07-08T13:31:47.165Z,1.40
2018-07-08T13:34:16.029Z,1.70
2018-07-08T14:01:11.894Z,1.57
2018-07-08T14:03:40.882Z,1.10
2018-07-08T14:06:11.326Z,2.30
2018-07-08T14:08:40.689Z,1.27
2018-07-08T14:11:10.326Z,1.30
2018-07-08T14:13:42.552Z,2.25
2018-07-08T14:16:12.643Z,1.40
2018-07-08T14:18:44.561Z,1.92
2018-07-08T14:21:20.095Z,2.12
2018-07-08T14:26:57.605Z,1.72
2018-07-08T14:29:28.392Z,1.80
2018-07-08T14:39:51.606Z,1.40
2018-07-08T14:42:24.265Z,1.57
2018-07-08T15:00:45.460Z,2.40
2018-07-08T15:03:26.458Z,1.45
2018-07-08T15:06:03.102Z,2.15
2018-07-08T15:08:48.410Z,2.08
2018-07-08T15:25:41.106Z,2.37
2018-07-08T15:28:43.878Z,1.20
2018-07-08T15:31:30.004Z,2.90
2018-07-08T15:34:00.115Z,3.33
2018-07-08T15:36:35.241Z,2.08
2018-07-08T15:39:17.297Z,1.87
2018-07-08T15:41:51.609Z,1.60
2018-07-08T15:44:21.420Z,2.45
2018-07-08T15:46:57.270Z,3.12
2018-07-08T15:53:21.546Z,2.17
2018-07-08T15:56:05.856Z,1.42
2018-07-08T15:58:34.913Z,3.87
2018-07-08T16:01:03.850Z,2.05
2018-07-08T16:03:40.337Z,2.47
2018-07-08T16:06:09.326Z,2.08
2018-07-08T16:08:44.737Z,1.12
2018-07-08T16:11:25.063Z,2.15
2018-07-08T16:14:06.348Z,1.00
2018-07-08T16:16:35.777Z,1.70
2018-07-08T16:19:12.326Z,1.50
2018-07-08T16:21:51.917Z,1.37
2018-07-08T16:27:22.090Z,3.15
2018-07-08T16:29:58.025Z,2.25
2018-07-08T16:32:39.065Z,1.45
2018-07-08T16:35:14.859Z,2.08
2018-07-08T16:37:47.198Z,2.75
2018-07-08T16:40:19.830Z,1.87
2018-07-08T16:42:49.447Z,1.57
2018-07-08T17:10:07.837Z,2.00
2018-07-08T17:12:48.013Z,2.15
2018-07-08T17:15:25.866Z,1.77
2018-07-08T17:17:55.913Z,1.75
2018-07-08T17:20:29.301Z,1.92
2018-07-08T17:23:14.251Z,1.50
2018-07-08T17:25:56.988Z,2.55
2018-07-08T17:31:18.761Z,1.27
2018-07-08T17:34:02.712Z,1.72
2018-07-08T19:06:47.362Z,3.00
2018-07-08T19:09:39.775Z,2.47
2018-07-08T20:09:47.364Z,1.90
2018-07-08T20:12:19.123Z,2.97
2018-07-08T20:14:53.721Z,3.23
2018-07-08T20:17:23.338Z,2.47
2018-07-08T20:19:57.205Z,2.63
